Time;durP1;ratioP1;P1;durP2;ratioP2;P2;SDS_P1;SDS_P2;PMS_P1;PMS_P2;Temp;Humidity;BMP_temperature;BMP_pressure;BME280_temperature;BME280_humidity;BME280_pressure;Samples;Min_cycle;Max_cycle;Signal;HPM_P1;HPM_P2
2024/03/30 05:24:22;;;;;;;29.30;3.90;;;16.90;35.30;;;;;;4350418;23;20161;-77
2024/03/30 05:26:23;;;;;;;28.38;4.50;;;16.90;35.30;;;;;;4084953;29;20052;-77
2024/03/30 05:28:28;;;;;;;23.30;4.30;;;16.90;35.00;;;;;;4090170;29;20110;-78
2024/03/30 05:30:29;;;;;;;22.75;4.13;;;16.90;35.30;;;;;;4085127;29;20143;-77
2024/03/30 05:32:30;;;;;;;27.60;3.92;;;16.80;35.20;;;;;;4084015;29;20048;-79
2024/03/30 05:34:32;;;;;;;27.60;3.88;;;16.90;35.00;;;;;;4084113;29;20110;-78
2024/03/30 05:36:33;;;;;;;27.58;3.88;;;16.80;35.10;;;;;;4085104;29;20465;-77
2024/03/30 05:38:34;;;;;;;29.85;4.43;;;16.80;35.00;;;;;;4094260;29;20079;-78
2024/03/30 05:40:37;;;;;;;30.65;4.03;;;16.80;35.90;;;;;;4082516;29;20055;-78
2024/03/30 05:42:39;;;;;;;28.88;7.47;;;16.80;35.70;;;;;;4085792;28;20066;-78
2024/03/30 05:44:40;;;;;;;36.63;9.15;;;16.80;36.90;;;;;;4097804;29;20043;-79
2024/03/30 05:46:41;;;;;;;31.30;6.55;;;16.70;36.30;;;;;;4084188;29;20054;-78
2024/03/30 05:48:42;;;;;;;30.67;4.65;;;16.80;36.30;;;;;;4087250;29;20110;-76
2024/03/30 05:50:44;;;;;;;29.60;4.35;;;16.80;35.90;;;;;;4100075;29;20051;-77
2024/03/30 05:52:45;;;;;;;28.08;3.97;;;16.70;35.80;;;;;;4091223;29;20075;-77
2024/03/30 05:54:47;;;;;;;26.60;4.47;;;16.80;36.20;;;;;;4082447;29;20047;-77
2024/03/30 05:56:49;;;;;;;29.50;4.50;;;16.80;35.40;;;;;;4084430;29;20048;-78
2024/03/30 05:58:51;;;;;;;34.28;4.72;;;16.90;35.30;;;;;;4077673;29;20436;-78
2024/03/30 06:00:52;;;;;;;29.63;4.47;;;16.90;35.20;;;;;;4099256;29;20047;-78
2024/03/30 06:02:54;;;;;;;32.75;4.78;;;16.90;35.10;;;;;;4096796;29;20055;-77
2024/03/30 06:04:55;;;;;;;24.52;4.13;;;16.90;35.40;;;;;;4097867;29;20098;-77
2024/03/30 06:06:58;;;;;;;28.67;4.75;;;17.00;35.20;;;;;;4099627;29;20454;-79
2024/03/30 06:08:59;;;;;;;32.03;4.70;;;17.00;35.20;;;;;;4094038;29;20138;-77
2024/03/30 06:11:00;;;;;;;31.10;4.47;;;17.10;34.80;;;;;;4084050;29;20048;-77
2024/03/30 06:13:03;;;;;;;29.75;5.35;;;17.10;34.90;;;;;;4089315;29;20106;-76
2024/03/30 06:15:06;;;;;;;30.38;4.60;;;17.10;34.10;;;;;;4089598;29;20051;-77
2024/03/30 06:17:07;;;;;;;34.10;5.15;;;17.20;34.10;;;;;;4087555;29;20048;-77
2024/03/30 06:19:09;;;;;;;38.72;5.25;;;17.30;34.50;;;;;;4087112;29;20091;-78
2024/03/30 06:21:10;;;;;;;36.55;5.15;;;17.20;34.30;;;;;;4091980;29;20086;-78
2024/03/30 06:23:12;;;;;;;32.63;5.30;;;17.30;34.20;;;;;;4090746;29;20066;-78
2024/03/30 06:25:13;;;;;;;29.48;4.80;;;17.30;34.60;;;;;;4085022;29;20142;-78
2024/03/30 06:27:15;;;;;;;40.47;5.20;;;17.40;34.40;;;;;;4086539;29;20051;-77
2024/03/30 06:29:19;;;;;;;32.03;5.00;;;17.40;33.70;;;;;;4086940;29;20046;-79
2024/03/30 06:31:21;;;;;;;34.88;5.32;;;17.50;33.60;;;;;;4088126;29;20188;-77
2024/03/30 06:33:22;;;;;;;39.78;5.35;;;17.50;33.50;;;;;;4095672;29;20055;-76
2024/03/30 06:35:25;;;;;;;34.95;5.25;;;17.60;33.50;;;;;;4085833;29;20059;-78
2024/03/30 06:37:27;;;;;;;41.00;5.35;;;17.60;33.70;;;;;;4086014;29;20047;-77
2024/03/30 06:43:40;;;;;;;43.00;5.70;;;17.60;33.60;;;;;;4091124;29;20131;-77
2024/03/30 06:44:09;;;;;;;37.55;5.68;;;17.70;33.40;;;;;;4086336;29;20098;-79
2024/03/30 06:46:13;;;;;;;46.88;5.72;;;17.60;33.40;;;;;;4086463;29;20102;-78
2024/03/30 06:48:14;;;;;;;31.85;5.88;;;17.80;33.20;;;;;;4086475;29;20343;-78
2024/03/30 06:50:15;;;;;;;30.23;5.10;;;17.80;33.40;;;;;;4086276;29;20497;-77
2024/03/30 06:52:17;;;;;;;52.47;6.93;;;17.80;33.90;;;;;;4086134;29;20102;-77
2024/03/30 06:54:20;;;;;;;45.13;6.40;;;17.80;33.50;;;;;;4086368;29;20450;-78
2024/03/30 06:56:21;;;;;;;39.03;6.60;;;17.90;33.40;;;;;;4086071;29;20079;-78
2024/03/30 06:58:23;;;;;;;41.83;6.50;;;17.90;33.80;;;;;;4086362;29;20080;-78
2024/03/30 07:00:25;;;;;;;47.30;6.45;;;17.90;34.10;;;;;;4083996;29;20437;-80
2024/03/30 07:02:27;;;;;;;41.75;6.22;;;17.90;34.50;;;;;;4082262;29;20059;-81
2024/03/30 07:04:29;;;;;;;45.38;6.25;;;18.00;33.40;;;;;;4092832;29;20047;-81
2024/03/30 07:06:30;;;;;;;45.75;6.00;;;18.00;33.30;;;;;;4090734;29;20091;-81
2024/03/30 07:08:32;;;;;;;45.80;6.85;;;18.00;33.80;;;;;;4086270;29;20060;-78
2024/03/30 07:10:33;;;;;;;41.45;5.43;;;18.10;33.10;;;;;;4101315;29;20051;-78
2024/03/30 07:12:37;;;;;;;41.35;5.88;;;18.20;32.70;;;;;;4086370;29;20055;-78
2024/03/30 07:14:38;;;;;;;43.10;6.95;;;18.10;33.10;;;;;;4098161;29;20131;-77
2024/03/30 07:16:39;;;;;;;42.97;6.22;;;18.20;32.70;;;;;;4096236;29;20476;-78
2024/03/30 07:18:43;;;;;;;39.80;5.63;;;18.20;32.70;;;;;;4086027;29;20536;-78
2024/03/30 07:20:45;;;;;;;39.17;6.20;;;18.20;32.40;;;;;;4086159;29;20449;-78
2024/03/30 07:22:46;;;;;;;50.22;6.65;;;18.30;32.90;;;;;;4088682;29;20052;-79
2024/03/30 07:24:48;;;;;;;43.35;6.45;;;18.30;32.60;;;;;;4085711;29;20194;-77
2024/03/30 07:26:49;;;;;;;40.33;6.80;;;18.30;32.50;;;;;;4088257;29;20051;-78
2024/03/30 07:28:51;;;;;;;36.42;5.68;;;18.30;32.80;;;;;;4101479;29;20043;-77
2024/03/30 07:30:54;;;;;;;38.65;6.45;;;18.30;32.80;;;;;;4101630;29;20058;-77
2024/03/30 07:32:56;;;;;;;43.15;6.40;;;18.30;32.60;;;;;;4098766;29;20472;-77
2024/03/30 07:34:58;;;;;;;44.45;6.75;;;18.30;32.40;;;;;;4085662;29;20051;-77
2024/03/30 07:37:00;;;;;;;45.88;6.38;;;18.30;32.80;;;;;;4085427;29;20040;-77
2024/03/30 07:39:01;;;;;;;44.30;6.32;;;18.30;32.70;;;;;;4084295;29;20055;-78
2024/03/30 07:41:03;;;;;;;44.55;6.45;;;18.30;33.20;;;;;;4085938;29;20474;-78
2024/03/30 07:43:05;;;;;;;42.85;6.30;;;18.30;32.80;;;;;;4085455;29;20580;-78
2024/03/30 07:45:06;;;;;;;41.58;6.25;;;18.30;33.00;;;;;;4085463;29;20055;-77
2024/03/30 07:47:08;;;;;;;40.75;6.43;;;18.30;32.60;;;;;;4084604;29;20047;-76
2024/03/30 07:49:09;;;;;;;44.78;5.93;;;18.30;32.50;;;;;;4080035;29;20099;-79
2024/03/30 07:51:12;;;;;;;37.33;5.80;;;18.30;32.70;;;;;;4082317;29;20052;-78
2024/03/30 07:53:13;;;;;;;43.58;5.43;;;18.30;33.40;;;;;;4083050;29;20489;-78
2024/03/30 07:55:15;;;;;;;43.53;6.38;;;18.30;33.30;;;;;;4085095;29;20059;-78
2024/03/30 07:57:16;;;;;;;37.55;6.10;;;18.30;33.60;;;;;;4084933;29;20050;-78
2024/03/30 07:59:18;;;;;;;49.13;7.18;;;18.30;33.70;;;;;;4094431;29;20047;-78
2024/03/30 08:01:19;;;;;;;33.90;5.68;;;18.20;33.80;;;;;;4101222;29;20548;-76
2024/03/30 08:03:20;;;;;;;37.65;6.22;;;18.20;34.00;;;;;;4100895;29;20106;-79
2024/03/30 08:05:22;;;;;;;45.58;5.72;;;18.20;33.80;;;;;;4091905;29;20044;-75
2024/03/30 08:07:25;;;;;;;36.88;5.40;;;18.20;34.20;;;;;;4084709;29;20106;-79
2024/03/30 08:09:26;;;;;;;36.70;5.40;;;18.20;32.80;;;;;;4084814;29;20047;-78
2024/03/30 08:11:28;;;;;;;34.65;5.57;;;18.20;33.20;;;;;;4085027;29;20051;-79
2024/03/30 08:13:29;;;;;;;33.42;5.32;;;18.20;34.10;;;;;;4084971;29;20114;-78
2024/03/30 08:15:31;;;;;;;32.10;5.53;;;18.20;34.10;;;;;;4084905;29;20060;-77
2024/03/30 08:17:32;;;;;;;35.70;6.32;;;18.20;34.20;;;;;;4084756;29;20084;-79
2024/03/30 08:19:34;;;;;;;44.53;6.35;;;18.20;34.90;;;;;;4084776;29;20052;-78
2024/03/30 08:21:34;;;;;;;31.25;6.00;;;18.10;35.30;;;;;;4083984;29;20130;-77
2024/03/30 08:23:38;;;;;;;36.10;6.57;;;18.20;35.30;;;;;;4078981;29;20060;-79
2024/03/30 08:25:38;;;;;;;46.45;6.32;;;18.10;37.00;;;;;;4085022;29;20470;-78
2024/03/30 08:27:40;;;;;;;40.20;6.25;;;18.00;38.40;;;;;;4084556;29;20055;-78
2024/03/30 08:29:42;;;;;;;37.00;6.05;;;18.00;38.00;;;;;;4085093;29;20095;-78
2024/03/30 08:31:44;;;;;;;38.22;5.72;;;18.00;38.40;;;;;;4084690;29;20103;-78
2024/03/30 08:33:45;;;;;;;35.92;5.47;;;17.90;39.60;;;;;;4084725;29;20095;-75
2024/03/30 08:35:54;;;;;;;37.53;5.78;;;17.80;39.70;;;;;;4084520;29;20054;-78
2024/03/30 08:37:55;;;;;;;35.17;5.80;;;17.80;39.30;;;;;;4085006;29;20058;-75
2024/03/30 08:39:58;;;;;;;43.25;6.57;;;17.80;39.70;;;;;;4084766;29;20048;-76
2024/03/30 08:41:59;;;;;;;38.47;5.93;;;17.70;40.10;;;;;;4084237;29;20549;-78
2024/03/30 08:44:04;;;;;;;45.05;6.60;;;17.70;40.00;;;;;;4084239;29;20090;-77
2024/03/30 08:46:05;;;;;;;38.60;5.70;;;17.70;39.90;;;;;;4084065;29;20127;-78
2024/03/30 08:48:11;;;;;;;45.15;5.97;;;17.60;40.00;;;;;;4084704;29;20071;-79
2024/03/30 08:50:13;;;;;;;45.78;6.25;;;17.60;40.10;;;;;;4084575;29;20047;-79
2024/03/30 08:52:14;;;;;;;46.38;6.85;;;17.60;40.80;;;;;;4084664;29;20059;-78
2024/03/30 08:54:15;;;;;;;40.85;6.53;;;17.60;39.60;;;;;;4084620;29;20048;-78
2024/03/30 08:56:18;;;;;;;37.67;6.07;;;17.60;37.70;;;;;;4084420;29;20071;-78
2024/03/30 08:58:19;;;;;;;48.65;6.70;;;17.70;38.90;;;;;;4084096;29;20482;-79
2024/03/30 09:00:21;;;;;;;41.67;6.07;;;17.70;37.60;;;;;;4084131;29;20083;-78
2024/03/30 09:02:22;;;;;;;43.25;5.75;;;17.70;38.50;;;;;;4084306;29;20378;-79
2024/03/30 09:04:24;;;;;;;41.60;6.78;;;17.70;37.40;;;;;;4084296;29;20107;-81
2024/03/30 09:06:25;;;;;;;37.38;5.72;;;17.70;38.00;;;;;;4084087;29;20177;-83
2024/03/30 09:08:27;;;;;;;46.10;6.78;;;17.70;37.40;;;;;;4096582;29;20077;-82
2024/03/30 09:10:28;;;;;;;41.42;6.15;;;17.70;38.10;;;;;;4084439;28;20051;-83
2024/03/30 09:12:31;;;;;;;41.63;5.93;;;17.70;39.00;;;;;;4092480;28;20495;-84
2024/03/30 09:14:34;;;;;;;41.30;6.05;;;17.70;38.30;;;;;;4077303;29;20052;-83
2024/03/30 09:16:36;;;;;;;50.00;6.45;;;17.70;37.10;;;;;;4082273;29;20047;-84
2024/03/30 09:18:37;;;;;;;42.33;6.10;;;17.70;38.60;;;;;;4074311;29;20112;-82
2024/03/30 09:20:38;;;;;;;45.95;6.10;;;17.60;39.10;;;;;;4069122;29;20048;-81
2024/03/30 09:22:42;;;;;;;41.22;6.05;;;17.60;38.80;;;;;;4078887;29;20052;-82
2024/03/30 09:24:43;;;;;;;31.83;6.45;;;17.60;38.30;;;;;;4084299;29;20473;-79
2024/03/30 09:26:45;;;;;;;36.67;5.65;;;17.70;36.70;;;;;;4084289;29;20056;-79
2024/03/30 09:28:47;;;;;;;36.63;5.85;;;17.70;37.60;;;;;;4084499;29;20087;-83
2024/03/30 09:30:50;;;;;;;33.72;5.55;;;17.70;39.90;;;;;;4084463;29;20494;-80
2024/03/30 09:32:51;;;;;;;35.78;6.70;;;17.70;40.90;;;;;;4084146;29;20060;-81
2024/03/30 09:34:53;;;;;;;41.28;6.32;;;17.70;40.00;;;;;;4084377;29;20102;-81
2024/03/30 09:36:54;;;;;;;37.22;5.35;;;17.70;39.30;;;;;;4083995;29;20549;-79
2024/03/30 09:38:56;;;;;;;42.00;6.78;;;17.70;39.10;;;;;;4084701;29;20048;-78
2024/03/30 09:41:02;;;;;;;40.92;6.32;;;17.70;38.10;;;;;;4083916;29;20056;-80
2024/03/30 09:43:04;;;;;;;34.97;6.38;;;17.80;37.30;;;;;;4084761;29;20062;-81
2024/03/30 09:45:10;;;;;;;50.50;7.07;;;17.80;39.60;;;;;;4084108;29;20051;-84
2024/03/30 09:47:13;;;;;;;41.88;6.85;;;17.70;39.10;;;;;;4084097;29;20059;-77
2024/03/30 09:49:15;;;;;;;39.88;5.75;;;17.70;37.90;;;;;;4081450;29;20465;-79
2024/03/30 09:51:18;;;;;;;38.72;6.45;;;17.80;36.50;;;;;;4084217;29;20107;-80
2024/03/30 09:53:21;;;;;;;34.38;5.60;;;17.80;36.90;;;;;;4085271;29;20060;-80
2024/03/30 09:55:26;;;;;;;38.05;5.90;;;17.80;38.40;;;;;;4084893;29;20135;-77
2024/03/30 09:57:30;;;;;;;42.38;5.88;;;17.80;37.20;;;;;;4068979;29;20083;-80
2024/03/30 09:59:31;;;;;;;37.20;6.30;;;17.80;36.80;;;;;;4088492;29;20059;-80
2024/03/30 10:01:34;;;;;;;35.60;5.93;;;17.80;38.20;;;;;;4081283;29;20107;-81
2024/03/30 10:03:36;;;;;;;39.67;6.60;;;17.80;38.40;;;;;;4072787;29;20083;-83
2024/03/30 10:05:40;;;;;;;39.55;6.57;;;17.80;38.30;;;;;;4075524;29;20044;-80
2024/03/30 10:07:51;;;;;;;43.15;5.53;;;17.90;36.30;;;;;;4078425;29;20052;-81
2024/03/30 10:09:58;;;;;;;33.85;5.35;;;17.90;35.30;;;;;;4074039;29;20060;-81
2024/03/30 10:12:09;;;;;;;33.72;6.40;;;18.00;35.80;;;;;;4085515;29;20110;-79
2024/03/30 10:14:18;;;;;;;41.08;5.45;;;18.00;38.00;;;;;;4088385;29;20512;-84
2024/03/30 10:16:20;;;;;;;40.88;5.88;;;18.00;35.60;;;;;;4083299;29;20131;-84
2024/03/30 10:18:23;;;;;;;34.80;5.13;;;18.10;35.90;;;;;;4079173;29;20055;-78
2024/03/30 10:20:25;;;;;;;32.92;5.20;;;18.10;35.90;;;;;;4071844;29;20430;-79
2024/03/30 10:22:26;;;;;;;36.03;5.63;;;18.20;34.90;;;;;;4080145;29;20043;-79
2024/03/30 10:24:30;;;;;;;34.30;5.38;;;18.20;36.10;;;;;;4085076;29;20126;-83
2024/03/30 10:26:36;;;;;;;37.47;6.03;;;18.30;38.00;;;;;;4078377;29;20186;-81
2024/03/30 10:28:37;;;;;;;37.95;5.72;;;18.20;39.40;;;;;;4078210;29;20482;-79
2024/03/30 10:30:39;;;;;;;39.28;6.15;;;18.20;41.10;;;;;;4082001;29;20056;-77
2024/03/30 10:32:41;;;;;;;41.30;6.35;;;18.20;40.00;;;;;;4079595;29;20062;-77
2024/03/30 10:34:45;;;;;;;46.63;6.40;;;18.10;40.10;;;;;;4086763;29;20450;-80
2024/03/30 10:36:48;;;;;;;33.63;5.95;;;18.10;39.40;;;;;;4083075;29;20056;-78
2024/03/30 10:38:49;;;;;;;40.65;6.15;;;18.20;39.70;;;;;;4077700;29;20461;-78
2024/03/30 10:40:51;;;;;;;33.33;5.70;;;18.20;40.30;;;;;;4086344;29;20048;-76
2024/03/30 10:42:55;;;;;;;34.72;5.30;;;18.20;41.50;;;;;;4086412;29;20055;-79
2024/03/30 10:44:58;;;;;;;31.05;5.45;;;18.10;41.10;;;;;;4086214;29;20056;-78
2024/03/30 10:47:00;;;;;;;42.20;6.20;;;18.10;41.70;;;;;;4086500;29;20102;-77
2024/03/30 10:49:01;;;;;;;34.35;5.65;;;18.10;41.20;;;;;;4086949;29;20118;-78
2024/03/30 10:51:04;;;;;;;40.13;6.47;;;18.10;37.70;;;;;;4086837;29;20416;-78
2024/03/30 10:53:06;;;;;;;34.00;6.60;;;18.10;41.80;;;;;;4087040;29;20063;-78
2024/03/30 10:55:08;;;;;;;39.28;6.28;;;18.10;43.60;;;;;;4086353;29;20510;-77
2024/03/30 10:57:09;;;;;;;32.63;6.05;;;18.10;43.70;;;;;;4086254;29;20123;-77
2024/03/30 10:59:11;;;;;;;45.60;6.75;;;18.10;42.40;;;;;;4086210;29;20044;-77
2024/03/30 11:01:14;;;;;;;34.35;5.85;;;18.00;41.70;;;;;;4085862;29;20054;-77
2024/03/30 11:03:18;;;;;;;32.65;5.30;;;18.10;40.20;;;;;;4086201;29;20087;-77
2024/03/30 11:05:20;;;;;;;34.55;5.50;;;18.20;36.70;;;;;;4086278;29;20057;-78
2024/03/30 11:07:24;;;;;;;35.17;5.82;;;18.30;36.30;;;;;;4086308;29;20429;-79
2024/03/30 11:09:27;;;;;;;33.28;4.80;;;18.40;36.90;;;;;;4086309;29;20394;-78
2024/03/30 11:11:29;;;;;;;39.38;6.95;;;18.40;37.10;;;;;;4086313;29;20055;-80
2024/03/30 11:13:30;;;;;;;40.22;6.47;;;18.30;39.40;;;;;;4086289;29;20462;-78
2024/03/30 11:15:37;;;;;;;36.88;6.38;;;18.20;40.90;;;;;;4086037;29;20062;-77
2024/03/30 11:17:44;;;;;;;36.58;6.03;;;18.20;41.90;;;;;;4086148;29;20424;-78
2024/03/30 11:19:58;;;;;;;34.17;6.00;;;18.20;40.50;;;;;;4086191;29;20065;-78
2024/03/30 11:22:08;;;;;;;42.67;6.03;;;18.20;40.60;;;;;;4086022;29;20481;-77
2024/03/30 11:24:15;;;;;;;41.92;6.25;;;18.30;38.40;;;;;;4085813;29;20051;-78
2024/03/30 11:26:21;;;;;;;40.60;6.72;;;18.30;39.20;;;;;;4086145;29;20086;-77
2024/03/30 11:28:30;;;;;;;39.35;6.25;;;18.30;40.20;;;;;;4085711;29;20115;-77
2024/03/30 11:30:40;;;;;;;39.20;6.13;;;18.20;41.70;;;;;;4085916;29;20052;-77
2024/03/30 11:32:51;;;;;;;47.00;6.53;;;18.20;42.00;;;;;;4085104;29;20142;-77
2024/03/30 11:34:57;;;;;;;31.42;6.30;;;18.20;42.10;;;;;;4085895;29;20055;-79
2024/03/30 11:37:08;;;;;;;43.95;7.45;;;18.20;42.80;;;;;;4085718;29;20052;-76
2024/03/30 11:39:20;;;;;;;48.13;7.13;;;18.30;43.80;;;;;;4085893;29;20080;-78
2024/03/30 11:41:22;;;;;;;37.45;6.30;;;18.20;42.90;;;;;;4085890;29;20147;-77
2024/03/30 11:43:32;;;;;;;33.55;6.40;;;18.30;43.30;;;;;;4085589;29;20079;-77
2024/03/30 11:45:38;;;;;;;50.55;7.85;;;18.30;45.10;;;;;;4085768;29;20060;-78
2024/03/30 11:47:40;;;;;;;34.42;7.13;;;18.30;45.90;;;;;;4085851;29;20048;-77
2024/03/30 11:49:42;;;;;;;32.13;6.53;;;18.30;45.30;;;;;;4085715;29;20410;-77
2024/03/30 11:51:43;;;;;;;33.67;6.88;;;18.20;46.20;;;;;;4086012;29;20055;-76
2024/03/30 11:53:45;;;;;;;36.45;6.30;;;18.20;46.20;;;;;;4085479;29;20111;-78
2024/03/30 11:55:51;;;;;;;31.77;6.25;;;18.30;45.50;;;;;;4085419;29;20456;-78
2024/03/30 11:57:53;;;;;;;;;;;18.30;46.60;;;;;;4086089;29;20058;-78
2024/03/30 11:59:54;;;;;;;34.50;6.07;;;18.30;45.40;;;;;;4085406;29;19929;-78
2024/03/30 12:01:56;;;;;;;41.75;6.70;;;18.40;43.80;;;;;;4085063;29;20455;-78
2024/03/30 12:03:58;;;;;;;41.72;7.45;;;18.30;44.30;;;;;;4085295;29;20059;-78
2024/03/30 12:06:00;;;;;;;36.63;6.38;;;18.40;45.70;;;;;;4085447;29;20059;-76
2024/03/30 12:08:04;;;;;;;40.67;7.40;;;18.30;45.50;;;;;;4085197;29;20177;-78
2024/03/30 12:10:09;;;;;;;45.10;6.82;;;18.30;46.20;;;;;;4085105;29;20151;-80
2024/03/30 12:12:18;;;;;;;39.58;6.47;;;18.30;47.00;;;;;;4084842;29;20482;-81
2024/03/30 12:14:19;;;;;;;46.47;7.55;;;18.30;46.80;;;;;;4085507;29;20126;-83
2024/03/30 12:16:20;;;;;;;40.38;6.72;;;18.30;44.30;;;;;;4085157;29;20110;-82
2024/03/30 12:18:24;;;;;;;35.97;7.20;;;18.30;44.10;;;;;;4085240;29;20055;-81
2024/03/30 12:20:25;;;;;;;44.20;7.18;;;18.30;44.00;;;;;;4085199;29;20066;-81
2024/03/30 12:22:28;;;;;;;43.90;7.30;;;18.30;44.70;;;;;;4085374;29;20044;-82
2024/03/30 12:24:29;;;;;;;33.67;6.78;;;18.30;44.80;;;;;;4085067;29;20493;-83
2024/03/30 12:26:31;;;;;;;33.70;6.03;;;18.30;45.50;;;;;;4084559;29;20062;-82
2024/03/30 12:28:34;;;;;;;38.17;7.13;;;18.30;45.20;;;;;;4085208;29;20043;-83
2024/03/30 12:30:41;;;;;;;34.47;6.90;;;18.30;45.00;;;;;;4085286;29;20055;-83
2024/03/30 12:32:45;;;;;;;33.20;6.53;;;18.30;46.20;;;;;;4083392;29;20058;-83
2024/03/30 12:35:00;;;;;;;40.92;7.13;;;18.40;48.40;;;;;;4084662;29;20477;-86
2024/03/30 12:37:01;;;;;;;47.85;6.80;;;18.40;49.20;;;;;;4085447;29;20055;-82
2024/03/30 12:39:03;;;;;;;36.13;7.05;;;18.40;49.30;;;;;;4084344;29;20059;-78
2024/03/30 12:41:05;;;;;;;38.08;7.13;;;18.40;49.30;;;;;;4084375;29;20056;-82
2024/03/30 12:43:06;;;;;;;40.05;7.35;;;18.40;49.20;;;;;;4084954;29;20501;-86
2024/03/30 12:45:10;;;;;;;38.47;7.30;;;18.30;49.10;;;;;;4068771;29;20079;-86
2024/03/30 12:47:12;;;;;;;33.10;6.95;;;18.30;48.50;;;;;;4085741;29;20056;-85
2024/03/30 12:49:14;;;;;;;35.95;6.13;;;18.30;48.90;;;;;;4085455;29;20047;-86
2024/03/30 12:51:15;;;;;;;32.92;6.40;;;18.30;48.40;;;;;;4084390;29;20484;-85
2024/03/30 12:53:17;;;;;;;43.17;6.85;;;18.20;48.30;;;;;;4085778;29;20051;-84
2024/03/30 12:55:18;;;;;;;41.50;6.72;;;18.20;48.20;;;;;;4085608;29;20103;-86
2024/03/30 12:57:22;;;;;;;40.78;6.72;;;18.20;47.40;;;;;;4068840;29;20051;-86
2024/03/30 12:59:23;;;;;;;32.17;6.07;;;18.20;47.70;;;;;;4085318;29;20517;-85
2024/03/30 13:01:27;;;;;;;43.17;7.25;;;18.20;49.30;;;;;;4085249;29;20055;-81
2024/03/30 13:03:28;;;;;;;43.95;6.72;;;18.20;52.40;;;;;;4081891;29;20110;-79
2024/03/30 13:05:31;;;;;;;38.70;6.55;;;18.20;50.40;;;;;;4082524;29;20055;-78
2024/03/30 13:07:32;;;;;;;42.45;6.97;;;18.20;50.30;;;;;;4082483;29;20130;-78
2024/03/30 13:09:35;;;;;;;35.28;6.95;;;18.20;51.20;;;;;;4082247;29;20052;-80
2024/03/30 13:11:35;;;;;;;45.15;6.90;;;18.20;51.30;;;;;;4082575;29;20099;-77
2024/03/30 13:13:38;;;;;;;37.95;6.63;;;18.20;50.40;;;;;;4082482;29;20048;-79
2024/03/30 13:15:39;;;;;;;37.33;6.78;;;18.20;49.80;;;;;;4082743;29;20612;-78
2024/03/30 13:17:43;;;;;;;45.53;7.20;;;18.20;50.30;;;;;;4082728;29;20135;-78
2024/03/30 13:19:44;;;;;;;45.40;7.55;;;18.20;50.50;;;;;;4082687;29;20083;-77
2024/03/30 13:21:46;;;;;;;48.38;8.68;;;18.30;50.80;;;;;;4083341;29;20147;-74
2024/03/30 13:23:48;;;;;;;41.30;8.10;;;18.20;52.40;;;;;;4084572;29;20497;-78
2024/03/30 13:25:50;;;;;;;41.33;10.43;;;18.20;52.80;;;;;;4086029;29;20069;-78
2024/03/30 13:27:51;;;;;;;50.63;11.48;;;18.20;52.70;;;;;;4085052;29;20135;-76
2024/03/30 13:29:53;;;;;;;41.95;9.40;;;18.20;53.50;;;;;;4086205;29;20048;-77
2024/03/30 13:31:54;;;;;;;39.75;9.25;;;18.10;53.30;;;;;;4086135;29;20102;-76
2024/03/30 13:33:57;;;;;;;41.78;7.82;;;18.10;54.10;;;;;;4086030;29;20417;-76
2024/03/30 13:35:58;;;;;;;42.83;6.63;;;18.10;52.90;;;;;;4085282;29;20043;-74
2024/03/30 13:38:00;;;;;;;42.95;7.22;;;18.00;52.90;;;;;;4085740;29;20051;-78
2024/03/30 13:40:03;;;;;;;33.72;6.70;;;18.00;52.70;;;;;;4085715;29;20051;-80
2024/03/30 13:42:05;;;;;;;42.00;7.53;;;17.90;53.60;;;;;;4085653;29;20106;-77
2024/03/30 13:44:06;;;;;;;35.42;6.38;;;17.90;54.20;;;;;;4085330;29;20114;-74
2024/03/30 13:46:08;;;;;;;40.10;7.25;;;17.90;54.30;;;;;;4085595;29;20060;-77
2024/03/30 13:48:09;;;;;;;37.55;5.72;;;17.90;53.70;;;;;;4085471;29;20059;-76
2024/03/30 13:50:12;;;;;;;31.88;4.90;;;17.80;47.90;;;;;;4083799;29;20820;-77
2024/03/30 13:52:13;;;;;;;33.42;5.95;;;17.80;47.10;;;;;;4085402;29;20048;-78
2024/03/30 13:54:18;;;;;;;30.33;5.65;;;17.80;47.60;;;;;;4085279;29;20107;-78
2024/03/30 13:56:18;;;;;;;28.55;5.03;;;17.70;47.60;;;;;;4085142;29;20055;-77
2024/03/30 13:58:25;;;;;;;29.88;5.00;;;17.70;48.20;;;;;;4084882;29;20058;-77
2024/03/30 14:00:27;;;;;;;34.97;5.15;;;17.70;47.50;;;;;;4085154;29;20409;-78
2024/03/30 14:02:28;;;;;;;37.03;5.38;;;17.60;47.00;;;;;;4085355;29;20516;-79
2024/03/30 14:04:29;;;;;;;35.17;5.25;;;17.50;47.40;;;;;;4085115;29;20052;-79
2024/03/30 14:06:33;;;;;;;37.17;5.90;;;17.60;47.60;;;;;;4083250;29;20119;-79
2024/03/30 14:08:33;;;;;;;42.47;5.50;;;17.60;47.50;;;;;;4071167;29;20728;-78
2024/03/30 14:10:35;;;;;;;36.58;5.00;;;17.60;47.80;;;;;;4079800;29;20048;-79
2024/03/30 14:12:36;;;;;;;34.85;5.82;;;17.70;47.20;;;;;;4069285;29;20063;-80
2024/03/30 14:14:38;;;;;;;35.50;5.60;;;17.70;47.40;;;;;;4080714;29;20772;-78
2024/03/30 14:16:40;;;;;;;30.48;5.40;;;17.70;47.50;;;;;;4082636;29;20063;-77
2024/03/30 14:18:42;;;;;;;34.83;5.43;;;17.70;47.00;;;;;;4084129;29;20051;-80
2024/03/30 14:20:43;;;;;;;32.47;5.80;;;17.70;47.30;;;;;;4076202;29;20056;-78
2024/03/30 14:22:46;;;;;;;33.47;5.38;;;17.70;47.70;;;;;;4084349;29;20504;-78
2024/03/30 14:24:47;;;;;;;36.80;5.28;;;17.80;47.00;;;;;;4083793;29;20056;-78
2024/03/30 14:26:49;;;;;;;32.05;4.85;;;17.80;46.50;;;;;;4084550;29;20462;-78
2024/03/30 14:28:50;;;;;;;37.05;5.30;;;17.90;47.10;;;;;;4084096;29;20469;-79
2024/03/30 14:30:51;;;;;;;29.67;5.15;;;17.90;47.20;;;;;;4084245;29;20112;-79
2024/03/30 14:32:52;;;;;;;33.63;5.30;;;17.90;45.90;;;;;;4083999;29;20051;-79
2024/03/30 14:34:55;;;;;;;36.30;5.35;;;17.90;46.30;;;;;;4083487;29;20052;-77
2024/03/30 14:36:56;;;;;;;31.45;4.18;;;17.90;46.60;;;;;;4084118;29;20449;-79
2024/03/30 14:39:00;;;;;;;48.15;6.10;;;17.80;46.60;;;;;;4084418;29;20102;-78
2024/03/30 14:41:01;;;;;;;36.40;5.40;;;17.90;46.50;;;;;;4084593;29;20048;-79
2024/03/30 14:43:04;;;;;;;41.70;5.45;;;17.60;46.70;;;;;;4084267;29;20050;-79
2024/03/30 14:45:05;;;;;;;31.60;5.32;;;17.60;47.30;;;;;;4084139;29;20110;-78
2024/03/30 14:47:08;;;;;;;34.47;5.65;;;17.60;48.00;;;;;;4084328;29;20698;-79
2024/03/30 14:49:09;;;;;;;43.05;6.20;;;17.70;47.70;;;;;;4083798;29;20052;-78
2024/03/30 14:51:11;;;;;;;40.53;5.75;;;17.70;47.00;;;;;;4081589;29;20094;-78
2024/03/30 14:53:12;;;;;;;49.33;6.13;;;17.60;47.50;;;;;;4084079;29;20442;-79
2024/03/30 14:55:15;;;;;;;36.72;5.65;;;17.60;47.70;;;;;;4084284;29;20087;-80
2024/03/30 14:57:17;;;;;;;33.42;5.35;;;17.60;47.20;;;;;;4083803;29;20490;-78
2024/03/30 14:59:20;;;;;;;47.13;6.22;;;17.60;47.00;;;;;;4084374;29;20505;-80
2024/03/30 15:01:21;;;;;;;38.00;5.65;;;17.40;47.90;;;;;;4083987;29;20130;-78
2024/03/30 15:03:34;;;;;;;50.20;6.57;;;17.40;48.00;;;;;;4084192;29;20478;-79
2024/03/30 15:05:34;;;;;;;40.05;5.75;;;17.30;48.10;;;;;;4084101;29;20051;-78
2024/03/30 15:07:36;;;;;;;34.38;5.13;;;17.30;48.10;;;;;;4083709;29;20159;-79
2024/03/30 15:09:37;;;;;;;34.80;6.68;;;17.40;48.10;;;;;;4084010;29;20054;-79
2024/03/30 15:11:42;;;;;;;35.17;5.70;;;17.30;48.20;;;;;;4081076;29;20564;-77
2024/03/30 15:13:44;;;;;;;34.15;5.35;;;17.20;48.40;;;;;;4083919;29;20139;-80
2024/03/30 15:15:46;;;;;;;44.72;5.43;;;17.20;48.70;;;;;;4076296;29;20078;-78
2024/03/30 15:17:47;;;;;;;45.95;5.70;;;17.20;48.70;;;;;;4072433;29;20450;-78
2024/03/30 15:19:49;;;;;;;32.45;5.72;;;17.20;49.00;;;;;;4078872;29;20052;-78
2024/03/30 15:21:50;;;;;;;35.92;5.43;;;16.90;49.00;;;;;;4082391;29;20047;-79
2024/03/30 15:23:53;;;;;;;45.55;6.25;;;17.00;48.90;;;;;;4075373;29;20056;-78
2024/03/30 15:25:54;;;;;;;44.35;5.78;;;17.00;49.10;;;;;;4081258;29;20462;-78
2024/03/30 15:27:59;;;;;;;39.60;5.93;;;17.00;49.50;;;;;;4076462;29;20055;-78
2024/03/30 15:32:25;;;;;;;43.42;6.30;;;16.70;49.60;;;;;;4074662;29;20107;-78
2024/03/30 15:34:27;;;;;;;47.05;6.88;;;16.80;50.20;;;;;;4068799;29;20080;-77
2024/03/30 15:36:28;;;;;;;48.10;6.45;;;16.70;50.10;;;;;;4075279;29;20051;-79
2024/03/30 15:38:30;;;;;;;40.55;6.13;;;16.60;50.50;;;;;;4075428;29;20048;-79
2024/03/30 15:40:32;;;;;;;33.55;5.55;;;16.60;50.80;;;;;;4068079;29;20044;-79
2024/03/30 15:42:33;;;;;;;43.17;6.47;;;16.50;50.70;;;;;;4080516;29;20052;-77
2024/03/30 15:44:37;;;;;;;38.67;5.65;;;16.50;50.90;;;;;;4068285;29;20115;-78
2024/03/30 15:46:37;;;;;;;39.70;5.72;;;16.60;51.20;;;;;;4075658;29;20047;-78
2024/03/30 15:48:39;;;;;;;44.97;5.60;;;16.50;50.60;;;;;;4073750;29;20446;-79
2024/03/30 15:50:41;;;;;;;35.90;5.68;;;16.60;51.70;;;;;;4066825;29;20080;-76
2024/03/30 15:52:42;;;;;;;39.42;5.80;;;16.60;50.40;;;;;;4074492;29;20048;-78
2024/03/30 15:54:44;;;;;;;38.72;5.85;;;16.60;50.30;;;;;;4068320;29;20052;-77
2024/03/30 15:56:45;;;;;;;36.72;5.20;;;16.60;49.90;;;;;;4074428;29;20056;-78
2024/03/30 15:58:47;;;;;;;38.55;5.95;;;16.70;50.60;;;;;;4075042;29;20665;-79